sensor_id;sensor_type;location;lat;lon;timestamp;temperature;humidity
21199;DHT22;10757;51.038;3.712;2022-12-01T00:01:59;6.10;99.90
21199;DHT22;10757;51.038;3.712;2022-12-01T00:04:24;6.20;99.90
21199;DHT22;10757;51.038;3.712;2022-12-01T00:06:50;6.20;99.90
21199;DHT22;10757;51.038;3.712;2022-12-01T00:09:16;6.10;99.90
21199;DHT22;10757;51.038;3.712;2022-12-01T00:12:00;6.20;99.90
21199;DHT22;10757;51.038;3.712;2022-12-01T00:14:26;6.10;99.90
21199;DHT22;10757;51.038;3.712;2022-12-01T00:16:51;6.00;99.90
21199;DHT22;10757;51.038;3.712;2022-12-01T00:19:17;5.90;99.90
21199;DHT22;10757;51.038;3.712;2022-12-01T00:21:42;5.80;99.90
21199;DHT22;10757;51.038;3.712;2022-12-01T00:24:10;5.70;99.90
21199;DHT22;10757;51.038;3.712;2022-12-01T00:26:37;5.90;99.90
21199;DHT22;10757;51.038;3.712;2022-12-01T00:29:03;6.10;99.90
21199;DHT22;10757;51.038;3.712;2022-12-01T00:31:31;6.30;99.90
21199;DHT22;10757;51.038;3.712;2022-12-01T00:33:56;6.20;99.90
21199;DHT22;10757;51.038;3.712;2022-12-01T00:36:25;6.30;99.90
21199;DHT22;10757;51.038;3.712;2022-12-01T00:38:52;6.30;99.90
21199;DHT22;10757;51.038;3.712;2022-12-01T00:41:18;6.10;99.90
21199;DHT22;10757;51.038;3.712;2022-12-01T00:43:45;6.20;99.90
21199;DHT22;10757;51.038;3.712;2022-12-01T00:46:11;6.00;99.90
21199;DHT22;10757;51.038;3.712;2022-12-01T00:48:36;6.10;99.90
21199;DHT22;10757;51.038;3.712;2022-12-01T00:51:02;5.90;99.90
21199;DHT22;10757;51.038;3.712;2022-12-01T00:53:28;5.90;99.90
21199;DHT22;10757;51.038;3.712;2022-12-01T00:55:54;5.80;99.90
21199;DHT22;10757;51.038;3.712;2022-12-01T00:58:26;5.80;99.90
21199;DHT22;10757;51.038;3.712;2022-12-01T01:00:59;5.90;99.90
21199;DHT22;10757;51.038;3.712;2022-12-01T01:03:27;5.90;99.90
21199;DHT22;10757;51.038;3.712;2022-12-01T01:05:53;6.10;99.90
21199;DHT22;10757;51.038;3.712;2022-12-01T01:08:19;6.00;99.90
21199;DHT22;10757;51.038;3.712;2022-12-01T01:10:46;6.10;99.90
21199;DHT22;10757;51.038;3.712;2022-12-01T01:13:13;6.40;99.90
21199;DHT22;10757;51.038;3.712;2022-12-01T01:15:39;6.30;99.90
21199;DHT22;10757;51.038;3.712;2022-12-01T01:18:06;6.20;99.90
21199;DHT22;10757;51.038;3.712;2022-12-01T01:20:33;6.00;99.90
21199;DHT22;10757;51.038;3.712;2022-12-01T01:22:59;5.80;99.90
21199;DHT22;10757;51.038;3.712;2022-12-01T01:25:25;5.70;99.90
21199;DHT22;10757;51.038;3.712;2022-12-01T01:28:01;5.60;99.90
21199;DHT22;10757;51.038;3.712;2022-12-01T01:30:27;5.60;99.90
21199;DHT22;10757;51.038;3.712;2022-12-01T01:32:52;5.70;99.90
21199;DHT22;10757;51.038;3.712;2022-12-01T01:35:18;5.70;99.90
21199;DHT22;10757;51.038;3.712;2022-12-01T01:37:44;5.70;99.90
21199;DHT22;10757;51.038;3.712;2022-12-01T01:40:10;5.70;99.90
21199;DHT22;10757;51.038;3.712;2022-12-01T01:42:36;5.70;99.90
21199;DHT22;10757;51.038;3.712;2022-12-01T01:45:02;5.60;99.90
21199;DHT22;10757;51.038;3.712;2022-12-01T01:47:33;5.70;99.90
21199;DHT22;10757;51.038;3.712;2022-12-01T01:50:12;5.80;99.90
21199;DHT22;10757;51.038;3.712;2022-12-01T01:52:44;5.90;99.90
21199;DHT22;10757;51.038;3.712;2022-12-01T01:55:11;6.20;99.90
21199;DHT22;10757;51.038;3.712;2022-12-01T01:57:39;6.40;99.90
21199;DHT22;10757;51.038;3.712;2022-12-01T02:00:11;6.40;99.90
21199;DHT22;10757;51.038;3.712;2022-12-01T02:02:40;6.40;99.90
21199;DHT22;10757;51.038;3.712;2022-12-01T02:05:14;6.50;99.90
21199;DHT22;10757;51.038;3.712;2022-12-01T02:07:41;6.60;99.90
21199;DHT22;10757;51.038;3.712;2022-12-01T02:10:10;6.50;99.90
21199;DHT22;10757;51.038;3.712;2022-12-01T02:12:55;6.40;99.90
21199;DHT22;10757;51.038;3.712;2022-12-01T02:15:37;6.50;99.90
21199;DHT22;10757;51.038;3.712;2022-12-01T02:26:52;6.50;99.90
21199;DHT22;10757;51.038;3.712;2022-12-01T02:35:32;6.50;99.90
21199;DHT22;10757;51.038;3.712;2022-12-01T02:40:56;6.30;99.90
21199;DHT22;10757;51.038;3.712;2022-12-01T02:43:31;6.30;99.90
21199;DHT22;10757;51.038;3.712;2022-12-01T02:48:37;6.20;99.90
21199;DHT22;10757;51.038;3.712;2022-12-01T02:51:11;6.20;99.90
21199;DHT22;10757;51.038;3.712;2022-12-01T02:53:38;6.30;99.90
21199;DHT22;10757;51.038;3.712;2022-12-01T02:56:06;6.30;99.90
21199;DHT22;10757;51.038;3.712;2022-12-01T02:58:49;6.30;99.90
21199;DHT22;10757;51.038;3.712;2022-12-01T03:18:42;6.20;99.90
21199;DHT22;10757;51.038;3.712;2022-12-01T03:23:57;6.20;99.90
21199;DHT22;10757;51.038;3.712;2022-12-01T03:26:30;6.30;99.90
21199;DHT22;10757;51.038;3.712;2022-12-01T03:29:02;6.30;99.90
21199;DHT22;10757;51.038;3.712;2022-12-01T03:31:39;6.30;99.90
21199;DHT22;10757;51.038;3.712;2022-12-01T03:37:09;6.20;99.90
21199;DHT22;10757;51.038;3.712;2022-12-01T03:39:41;6.30;99.90
21199;DHT22;10757;51.038;3.712;2022-12-01T03:42:23;6.60;99.90
21199;DHT22;10757;51.038;3.712;2022-12-01T03:45:05;6.60;99.90
21199;DHT22;10757;51.038;3.712;2022-12-01T03:47:35;6.90;99.90
21199;DHT22;10757;51.038;3.712;2022-12-01T03:50:05;7.10;99.90
21199;DHT22;10757;51.038;3.712;2022-12-01T03:53:14;6.80;99.90
21199;DHT22;10757;51.038;3.712;2022-12-01T03:55:40;6.50;99.90
21199;DHT22;10757;51.038;3.712;2022-12-01T03:58:17;6.30;99.90
21199;DHT22;10757;51.038;3.712;2022-12-01T04:00:46;6.50;99.90
21199;DHT22;10757;51.038;3.712;2022-12-01T04:03:20;6.40;99.90
21199;DHT22;10757;51.038;3.712;2022-12-01T04:05:47;6.30;99.90
21199;DHT22;10757;51.038;3.712;2022-12-01T04:08:13;6.30;99.90
21199;DHT22;10757;51.038;3.712;2022-12-01T04:10:39;6.40;99.90
21199;DHT22;10757;51.038;3.712;2022-12-01T04:13:04;6.40;99.90
21199;DHT22;10757;51.038;3.712;2022-12-01T04:15:30;6.40;99.90
21199;DHT22;10757;51.038;3.712;2022-12-01T04:24:32;6.40;99.90
21199;DHT22;10757;51.038;3.712;2022-12-01T04:26:58;6.50;99.90
21199;DHT22;10757;51.038;3.712;2022-12-01T04:29:23;6.40;99.90
21199;DHT22;10757;51.038;3.712;2022-12-01T04:31:49;6.50;99.90
21199;DHT22;10757;51.038;3.712;2022-12-01T04:34:15;6.60;99.90
21199;DHT22;10757;51.038;3.712;2022-12-01T04:36:40;6.70;99.90
21199;DHT22;10757;51.038;3.712;2022-12-01T04:39:06;6.70;99.90
21199;DHT22;10757;51.038;3.712;2022-12-01T04:41:32;6.50;99.90
21199;DHT22;10757;51.038;3.712;2022-12-01T04:43:58;6.40;99.90
21199;DHT22;10757;51.038;3.712;2022-12-01T04:46:24;6.30;99.90
21199;DHT22;10757;51.038;3.712;2022-12-01T04:48:50;6.40;99.90
21199;DHT22;10757;51.038;3.712;2022-12-01T04:51:16;6.50;99.90
21199;DHT22;10757;51.038;3.712;2022-12-01T04:53:42;6.50;99.90
21199;DHT22;10757;51.038;3.712;2022-12-01T04:56:08;6.70;99.90
21199;DHT22;10757;51.038;3.712;2022-12-01T04:58:36;6.80;99.90
21199;DHT22;10757;51.038;3.712;2022-12-01T05:01:04;6.60;99.90
21199;DHT22;10757;51.038;3.712;2022-12-01T05:03:30;6.30;99.90
21199;DHT22;10757;51.038;3.712;2022-12-01T05:06:02;6.10;99.90
21199;DHT22;10757;51.038;3.712;2022-12-01T05:08:27;6.20;99.90
21199;DHT22;10757;51.038;3.712;2022-12-01T05:10:56;6.30;99.90
21199;DHT22;10757;51.038;3.712;2022-12-01T05:13:22;6.20;99.90
21199;DHT22;10757;51.038;3.712;2022-12-01T05:15:48;6.40;99.90
21199;DHT22;10757;51.038;3.712;2022-12-01T05:18:14;6.60;99.90
21199;DHT22;10757;51.038;3.712;2022-12-01T05:20:40;6.50;99.90
21199;DHT22;10757;51.038;3.712;2022-12-01T05:23:25;6.40;99.90
21199;DHT22;10757;51.038;3.712;2022-12-01T05:25:51;6.40;99.90
21199;DHT22;10757;51.038;3.712;2022-12-01T05:28:17;6.30;99.90
21199;DHT22;10757;51.038;3.712;2022-12-01T05:30:43;6.30;99.90
21199;DHT22;10757;51.038;3.712;2022-12-01T05:33:09;6.30;99.90
21199;DHT22;10757;51.038;3.712;2022-12-01T05:35:34;6.10;99.90
21199;DHT22;10757;51.038;3.712;2022-12-01T05:38:00;6.00;99.90
21199;DHT22;10757;51.038;3.712;2022-12-01T05:40:26;5.80;99.90
21199;DHT22;10757;51.038;3.712;2022-12-01T05:42:52;5.70;99.90
21199;DHT22;10757;51.038;3.712;2022-12-01T05:45:17;5.70;99.90
21199;DHT22;10757;51.038;3.712;2022-12-01T05:47:43;5.70;99.90
21199;DHT22;10757;51.038;3.712;2022-12-01T05:50:09;5.80;99.90
21199;DHT22;10757;51.038;3.712;2022-12-01T05:52:35;5.90;99.90
21199;DHT22;10757;51.038;3.712;2022-12-01T05:55:05;5.90;99.90
21199;DHT22;10757;51.038;3.712;2022-12-01T05:57:31;6.10;99.90
21199;DHT22;10757;51.038;3.712;2022-12-01T05:59:58;6.10;99.90
21199;DHT22;10757;51.038;3.712;2022-12-01T06:02:24;6.10;99.90
21199;DHT22;10757;51.038;3.712;2022-12-01T06:04:51;6.10;99.90
21199;DHT22;10757;51.038;3.712;2022-12-01T06:07:18;6.10;99.90
21199;DHT22;10757;51.038;3.712;2022-12-01T06:09:43;6.20;99.90
21199;DHT22;10757;51.038;3.712;2022-12-01T06:12:11;6.20;99.90
21199;DHT22;10757;51.038;3.712;2022-12-01T06:14:37;6.20;99.90
21199;DHT22;10757;51.038;3.712;2022-12-01T06:17:03;6.20;99.90
21199;DHT22;10757;51.038;3.712;2022-12-01T06:19:28;6.20;99.90
21199;DHT22;10757;51.038;3.712;2022-12-01T06:24:25;6.30;99.90
21199;DHT22;10757;51.038;3.712;2022-12-01T06:26:51;6.30;99.90
21199;DHT22;10757;51.038;3.712;2022-12-01T06:29:16;6.40;99.90
21199;DHT22;10757;51.038;3.712;2022-12-01T06:31:42;6.70;99.90
21199;DHT22;10757;51.038;3.712;2022-12-01T06:34:09;6.80;99.90
21199;DHT22;10757;51.038;3.712;2022-12-01T06:36:35;6.90;99.90
21199;DHT22;10757;51.038;3.712;2022-12-01T06:39:00;6.60;99.90
21199;DHT22;10757;51.038;3.712;2022-12-01T06:41:30;6.40;99.90
21199;DHT22;10757;51.038;3.712;2022-12-01T06:43:56;6.50;99.90
21199;DHT22;10757;51.038;3.712;2022-12-01T06:46:24;6.80;99.90
21199;DHT22;10757;51.038;3.712;2022-12-01T06:48:49;6.90;99.90
21199;DHT22;10757;51.038;3.712;2022-12-01T06:51:15;6.60;99.90
21199;DHT22;10757;51.038;3.712;2022-12-01T06:53:41;6.60;99.90
21199;DHT22;10757;51.038;3.712;2022-12-01T06:56:07;6.50;99.90
21199;DHT22;10757;51.038;3.712;2022-12-01T06:58:32;6.60;99.90
21199;DHT22;10757;51.038;3.712;2022-12-01T07:00:59;6.50;99.90
21199;DHT22;10757;51.038;3.712;2022-12-01T07:03:25;6.60;99.90
21199;DHT22;10757;51.038;3.712;2022-12-01T07:05:58;6.60;99.90
21199;DHT22;10757;51.038;3.712;2022-12-01T07:08:26;6.70;99.90
21199;DHT22;10757;51.038;3.712;2022-12-01T07:11:00;6.60;99.90
21199;DHT22;10757;51.038;3.712;2022-12-01T07:13:26;6.60;99.90
21199;DHT22;10757;51.038;3.712;2022-12-01T07:15:52;6.60;99.90
21199;DHT22;10757;51.038;3.712;2022-12-01T07:18:18;6.60;99.90
21199;DHT22;10757;51.038;3.712;2022-12-01T07:20:44;6.70;99.90
21199;DHT22;10757;51.038;3.712;2022-12-01T07:23:09;6.90;99.90
21199;DHT22;10757;51.038;3.712;2022-12-01T07:25:35;7.00;99.90
21199;DHT22;10757;51.038;3.712;2022-12-01T07:28:01;7.00;99.90
21199;DHT22;10757;51.038;3.712;2022-12-01T07:30:27;7.00;99.90
21199;DHT22;10757;51.038;3.712;2022-12-01T07:32:53;6.90;99.90
21199;DHT22;10757;51.038;3.712;2022-12-01T07:35:18;6.80;99.90
21199;DHT22;10757;51.038;3.712;2022-12-01T07:37:44;6.80;99.90
21199;DHT22;10757;51.038;3.712;2022-12-01T07:40:11;7.00;99.90
21199;DHT22;10757;51.038;3.712;2022-12-01T07:42:40;7.00;99.90
21199;DHT22;10757;51.038;3.712;2022-12-01T07:45:06;6.90;99.90
21199;DHT22;10757;51.038;3.712;2022-12-01T07:47:32;6.90;99.90
21199;DHT22;10757;51.038;3.712;2022-12-01T07:49:58;7.00;99.90
21199;DHT22;10757;51.038;3.712;2022-12-01T07:52:24;7.00;99.90
21199;DHT22;10757;51.038;3.712;2022-12-01T07:54:49;7.00;99.90
21199;DHT22;10757;51.038;3.712;2022-12-01T07:57:15;7.10;99.90
21199;DHT22;10757;51.038;3.712;2022-12-01T07:59:42;7.10;99.90
21199;DHT22;10757;51.038;3.712;2022-12-01T08:02:09;7.10;99.90
21199;DHT22;10757;51.038;3.712;2022-12-01T08:04:35;7.10;99.90
21199;DHT22;10757;51.038;3.712;2022-12-01T08:07:02;7.10;99.90
21199;DHT22;10757;51.038;3.712;2022-12-01T08:09:27;7.10;99.90
21199;DHT22;10757;51.038;3.712;2022-12-01T08:11:53;7.00;99.90
21199;DHT22;10757;51.038;3.712;2022-12-01T08:14:19;7.00;99.90
21199;DHT22;10757;51.038;3.712;2022-12-01T08:16:47;6.90;99.90
21199;DHT22;10757;51.038;3.712;2022-12-01T08:19:19;7.00;99.90
21199;DHT22;10757;51.038;3.712;2022-12-01T08:21:45;7.30;99.90
21199;DHT22;10757;51.038;3.712;2022-12-01T08:24:15;7.70;99.90
21199;DHT22;10757;51.038;3.712;2022-12-01T08:26:43;7.90;99.90
21199;DHT22;10757;51.038;3.712;2022-12-01T08:29:08;7.70;99.90
21199;DHT22;10757;51.038;3.712;2022-12-01T08:31:39;7.70;99.90
21199;DHT22;10757;51.038;3.712;2022-12-01T08:34:06;7.50;99.90
21199;DHT22;10757;51.038;3.712;2022-12-01T08:36:33;7.40;99.90
21199;DHT22;10757;51.038;3.712;2022-12-01T08:39:05;7.50;99.90
21199;DHT22;10757;51.038;3.712;2022-12-01T08:41:32;7.40;99.90
21199;DHT22;10757;51.038;3.712;2022-12-01T08:43:57;7.50;99.90
21199;DHT22;10757;51.038;3.712;2022-12-01T08:46:35;7.40;99.90
21199;DHT22;10757;51.038;3.712;2022-12-01T08:49:03;7.40;99.90
21199;DHT22;10757;51.038;3.712;2022-12-01T08:51:32;7.40;99.90
21199;DHT22;10757;51.038;3.712;2022-12-01T08:53:58;7.40;99.90
21199;DHT22;10757;51.038;3.712;2022-12-01T08:56:36;7.50;99.90
21199;DHT22;10757;51.038;3.712;2022-12-01T08:59:03;7.50;99.90
21199;DHT22;10757;51.038;3.712;2022-12-01T09:01:32;7.50;99.90
21199;DHT22;10757;51.038;3.712;2022-12-01T09:04:04;7.90;99.90
21199;DHT22;10757;51.038;3.712;2022-12-01T09:06:32;8.00;99.90
21199;DHT22;10757;51.038;3.712;2022-12-01T09:08:59;7.80;99.90
21199;DHT22;10757;51.038;3.712;2022-12-01T09:11:25;7.70;99.90
21199;DHT22;10757;51.038;3.712;2022-12-01T09:13:50;7.50;99.90
21199;DHT22;10757;51.038;3.712;2022-12-01T09:16:18;7.40;99.90
21199;DHT22;10757;51.038;3.712;2022-12-01T09:18:45;7.70;99.90
21199;DHT22;10757;51.038;3.712;2022-12-01T09:21:22;7.70;99.90
21199;DHT22;10757;51.038;3.712;2022-12-01T09:23:50;7.70;99.90
21199;DHT22;10757;51.038;3.712;2022-12-01T09:26:20;7.80;99.90
21199;DHT22;10757;51.038;3.712;2022-12-01T09:28:47;8.00;99.90
21199;DHT22;10757;51.038;3.712;2022-12-01T09:31:14;8.00;99.90
21199;DHT22;10757;51.038;3.712;2022-12-01T09:33:40;7.90;99.90
21199;DHT22;10757;51.038;3.712;2022-12-01T09:36:10;7.80;99.90
21199;DHT22;10757;51.038;3.712;2022-12-01T09:38:37;7.70;99.90
21199;DHT22;10757;51.038;3.712;2022-12-01T09:41:25;7.70;99.90
21199;DHT22;10757;51.038;3.712;2022-12-01T09:44:01;7.50;99.90
21199;DHT22;10757;51.038;3.712;2022-12-01T09:46:35;7.50;99.90
21199;DHT22;10757;51.038;3.712;2022-12-01T09:49:19;7.70;99.90
21199;DHT22;10757;51.038;3.712;2022-12-01T09:51:52;7.80;99.90
21199;DHT22;10757;51.038;3.712;2022-12-01T09:54:20;7.80;99.90
21199;DHT22;10757;51.038;3.712;2022-12-01T09:56:50;7.70;99.90
21199;DHT22;10757;51.038;3.712;2022-12-01T09:59:30;7.70;99.90
21199;DHT22;10757;51.038;3.712;2022-12-01T10:02:23;7.80;99.90
21199;DHT22;10757;51.038;3.712;2022-12-01T10:04:56;7.90;99.90
21199;DHT22;10757;51.038;3.712;2022-12-01T10:07:36;7.90;99.90
21199;DHT22;10757;51.038;3.712;2022-12-01T10:10:13;8.00;99.90
21199;DHT22;10757;51.038;3.712;2022-12-01T10:12:44;8.10;99.90
21199;DHT22;10757;51.038;3.712;2022-12-01T10:24:05;8.00;99.90
21199;DHT22;10757;51.038;3.712;2022-12-01T10:29:42;8.00;99.90
21199;DHT22;10757;51.038;3.712;2022-12-01T10:34:42;7.70;99.90
21199;DHT22;10757;51.038;3.712;2022-12-01T10:37:20;7.60;99.90
21199;DHT22;10757;51.038;3.712;2022-12-01T10:39:49;7.70;99.90
21199;DHT22;10757;51.038;3.712;2022-12-01T10:45:05;8.00;99.90
21199;DHT22;10757;51.038;3.712;2022-12-01T10:47:33;8.20;99.90
21199;DHT22;10757;51.038;3.712;2022-12-01T10:49:59;8.30;99.90
21199;DHT22;10757;51.038;3.712;2022-12-01T10:52:43;8.50;99.90
21199;DHT22;10757;51.038;3.712;2022-12-01T10:55:23;9.00;99.90
21199;DHT22;10757;51.038;3.712;2022-12-01T10:57:56;9.10;99.90
21199;DHT22;10757;51.038;3.712;2022-12-01T11:00:29;9.20;99.90
21199;DHT22;10757;51.038;3.712;2022-12-01T11:02:58;9.00;99.90
21199;DHT22;10757;51.038;3.712;2022-12-01T11:05:27;9.00;99.90
21199;DHT22;10757;51.038;3.712;2022-12-01T11:07:56;8.80;99.90
21199;DHT22;10757;51.038;3.712;2022-12-01T11:10:25;9.00;99.90
21199;DHT22;10757;51.038;3.712;2022-12-01T11:15:38;9.00;99.90
21199;DHT22;10757;51.038;3.712;2022-12-01T11:18:19;9.00;99.90
21199;DHT22;10757;51.038;3.712;2022-12-01T11:20:45;8.90;99.90
21199;DHT22;10757;51.038;3.712;2022-12-01T11:28:26;8.50;99.90
21199;DHT22;10757;51.038;3.712;2022-12-01T11:30:58;8.40;99.90
21199;DHT22;10757;51.038;3.712;2022-12-01T11:33:27;8.20;99.90
21199;DHT22;10757;51.038;3.712;2022-12-01T11:35:53;8.50;99.90
21199;DHT22;10757;51.038;3.712;2022-12-01T11:38:22;8.40;99.90
21199;DHT22;10757;51.038;3.712;2022-12-01T11:40:55;8.50;99.90
21199;DHT22;10757;51.038;3.712;2022-12-01T11:43:42;8.80;99.90
21199;DHT22;10757;51.038;3.712;2022-12-01T11:46:08;8.80;99.90
21199;DHT22;10757;51.038;3.712;2022-12-01T11:48:34;8.70;99.90
21199;DHT22;10757;51.038;3.712;2022-12-01T11:53:44;8.80;99.90
21199;DHT22;10757;51.038;3.712;2022-12-01T11:56:22;8.90;99.90
21199;DHT22;10757;51.038;3.712;2022-12-01T11:58:56;8.90;99.90
21199;DHT22;10757;51.038;3.712;2022-12-01T12:10:24;8.70;99.90
21199;DHT22;10757;51.038;3.712;2022-12-01T12:18:28;8.80;99.90
21199;DHT22;10757;51.038;3.712;2022-12-01T12:26:00;8.70;99.90
21199;DHT22;10757;51.038;3.712;2022-12-01T12:40:47;8.50;99.90
21199;DHT22;10757;51.038;3.712;2022-12-01T12:46:09;8.90;99.90
21199;DHT22;10757;51.038;3.712;2022-12-01T12:51:16;8.90;99.90
21199;DHT22;10757;51.038;3.712;2022-12-01T12:56:40;8.90;99.90
21199;DHT22;10757;51.038;3.712;2022-12-01T13:01:53;8.60;99.90
21199;DHT22;10757;51.038;3.712;2022-12-01T13:04:43;8.70;99.90
21199;DHT22;10757;51.038;3.712;2022-12-01T13:10:06;9.00;99.90
21199;DHT22;10757;51.038;3.712;2022-12-01T13:12:41;9.00;99.90
21199;DHT22;10757;51.038;3.712;2022-12-01T13:15:19;8.90;99.90
21199;DHT22;10757;51.038;3.712;2022-12-01T13:20:18;8.80;99.90
21199;DHT22;10757;51.038;3.712;2022-12-01T13:22:48;8.70;99.90
21199;DHT22;10757;51.038;3.712;2022-12-01T13:25:36;8.70;99.90
21199;DHT22;10757;51.038;3.712;2022-12-01T13:28:18;8.90;99.90
21199;DHT22;10757;51.038;3.712;2022-12-01T13:31:07;8.90;99.90
21199;DHT22;10757;51.038;3.712;2022-12-01T13:33:34;8.60;99.90
21199;DHT22;10757;51.038;3.712;2022-12-01T13:36:01;8.50;99.90
21199;DHT22;10757;51.038;3.712;2022-12-01T13:38:33;8.50;99.90
21199;DHT22;10757;51.038;3.712;2022-12-01T13:43:59;8.30;99.90
21199;DHT22;10757;51.038;3.712;2022-12-01T13:46:30;8.30;99.90
21199;DHT22;10757;51.038;3.712;2022-12-01T13:49:02;8.50;99.90
21199;DHT22;10757;51.038;3.712;2022-12-01T13:54:38;8.50;99.90
21199;DHT22;10757;51.038;3.712;2022-12-01T13:57:11;8.50;99.90
21199;DHT22;10757;51.038;3.712;2022-12-01T13:59:43;8.70;99.90
21199;DHT22;10757;51.038;3.712;2022-12-01T14:02:29;8.50;99.90
21199;DHT22;10757;51.038;3.712;2022-12-01T14:07:49;8.60;99.90
21199;DHT22;10757;51.038;3.712;2022-12-01T14:10:25;8.80;99.90
21199;DHT22;10757;51.038;3.712;2022-12-01T14:12:54;8.70;99.90
21199;DHT22;10757;51.038;3.712;2022-12-01T14:15:32;8.40;99.90
21199;DHT22;10757;51.038;3.712;2022-12-01T14:18:03;8.40;99.90
21199;DHT22;10757;51.038;3.712;2022-12-01T14:20:35;8.30;99.90
21199;DHT22;10757;51.038;3.712;2022-12-01T14:23:35;8.20;99.90
21199;DHT22;10757;51.038;3.712;2022-12-01T14:26:19;8.30;99.90
21199;DHT22;10757;51.038;3.712;2022-12-01T14:34:10;8.10;99.90
21199;DHT22;10757;51.038;3.712;2022-12-01T14:37:12;8.40;99.90
21199;DHT22;10757;51.038;3.712;2022-12-01T14:39:43;8.30;99.90
21199;DHT22;10757;51.038;3.712;2022-12-01T14:46:05;8.10;99.90
21199;DHT22;10757;51.038;3.712;2022-12-01T14:48:46;8.00;99.90
21199;DHT22;10757;51.038;3.712;2022-12-01T14:51:27;8.10;99.90
21199;DHT22;10757;51.038;3.712;2022-12-01T14:53:54;8.50;99.90
21199;DHT22;10757;51.038;3.712;2022-12-01T14:56:21;8.60;99.90
21199;DHT22;10757;51.038;3.712;2022-12-01T14:59:00;8.40;99.90
21199;DHT22;10757;51.038;3.712;2022-12-01T15:01:35;8.50;99.90
21199;DHT22;10757;51.038;3.712;2022-12-01T15:04:04;8.20;99.90
21199;DHT22;10757;51.038;3.712;2022-12-01T15:06:31;8.00;99.90
21199;DHT22;10757;51.038;3.712;2022-12-01T15:09:13;8.00;99.90
21199;DHT22;10757;51.038;3.712;2022-12-01T15:12:24;7.90;99.90
21199;DHT22;10757;51.038;3.712;2022-12-01T15:14:50;7.90;99.90
21199;DHT22;10757;51.038;3.712;2022-12-01T15:17:33;7.90;99.90
21199;DHT22;10757;51.038;3.712;2022-12-01T15:20:02;7.90;99.90
21199;DHT22;10757;51.038;3.712;2022-12-01T15:22:30;8.10;99.90
21199;DHT22;10757;51.038;3.712;2022-12-01T15:25:14;8.00;99.90
21199;DHT22;10757;51.038;3.712;2022-12-01T15:27:42;7.70;99.90
21199;DHT22;10757;51.038;3.712;2022-12-01T15:30:12;7.60;99.90
21199;DHT22;10757;51.038;3.712;2022-12-01T15:32:41;7.60;99.90
21199;DHT22;10757;51.038;3.712;2022-12-01T15:35:20;7.60;99.90
21199;DHT22;10757;51.038;3.712;2022-12-01T15:37:47;7.70;99.90
21199;DHT22;10757;51.038;3.712;2022-12-01T15:40:19;7.60;99.90
21199;DHT22;10757;51.038;3.712;2022-12-01T15:43:03;7.60;99.90
21199;DHT22;10757;51.038;3.712;2022-12-01T15:46:09;7.60;99.90
21199;DHT22;10757;51.038;3.712;2022-12-01T15:48:34;7.60;99.90
21199;DHT22;10757;51.038;3.712;2022-12-01T15:53:44;7.30;99.90
21199;DHT22;10757;51.038;3.712;2022-12-01T15:56:13;7.30;99.90
21199;DHT22;10757;51.038;3.712;2022-12-01T15:58:44;7.30;99.90
21199;DHT22;10757;51.038;3.712;2022-12-01T16:01:19;7.40;99.90
21199;DHT22;10757;51.038;3.712;2022-12-01T16:06:16;7.80;99.90
21199;DHT22;10757;51.038;3.712;2022-12-01T16:08:52;7.50;99.90
21199;DHT22;10757;51.038;3.712;2022-12-01T16:11:20;7.30;99.90
21199;DHT22;10757;51.038;3.712;2022-12-01T16:13:49;7.20;99.90
21199;DHT22;10757;51.038;3.712;2022-12-01T16:19:02;7.20;99.90
21199;DHT22;10757;51.038;3.712;2022-12-01T16:21:33;7.10;99.90
21199;DHT22;10757;51.038;3.712;2022-12-01T16:27:37;7.00;99.90
21199;DHT22;10757;51.038;3.712;2022-12-01T16:29:55;7.10;99.90
21199;DHT22;10757;51.038;3.712;2022-12-01T16:32:35;7.10;99.90
21199;DHT22;10757;51.038;3.712;2022-12-01T16:35:03;7.20;99.90
21199;DHT22;10757;51.038;3.712;2022-12-01T16:37:32;7.20;99.90
21199;DHT22;10757;51.038;3.712;2022-12-01T16:39:58;7.10;99.90
21199;DHT22;10757;51.038;3.712;2022-12-01T16:42:24;7.00;99.90
21199;DHT22;10757;51.038;3.712;2022-12-01T16:44:50;7.00;99.90
21199;DHT22;10757;51.038;3.712;2022-12-01T16:47:18;7.00;99.90
21199;DHT22;10757;51.038;3.712;2022-12-01T16:49:44;7.00;99.90
21199;DHT22;10757;51.038;3.712;2022-12-01T16:52:10;6.90;99.90
21199;DHT22;10757;51.038;3.712;2022-12-01T16:54:36;6.90;99.90
21199;DHT22;10757;51.038;3.712;2022-12-01T16:57:02;6.90;99.90
21199;DHT22;10757;51.038;3.712;2022-12-01T16:59:31;6.90;99.90
21199;DHT22;10757;51.038;3.712;2022-12-01T17:01:57;6.90;99.90
21199;DHT22;10757;51.038;3.712;2022-12-01T17:04:24;6.90;99.90
21199;DHT22;10757;51.038;3.712;2022-12-01T17:06:50;6.90;99.90
21199;DHT22;10757;51.038;3.712;2022-12-01T17:09:19;6.90;99.90
21199;DHT22;10757;51.038;3.712;2022-12-01T17:11:45;6.70;99.90
21199;DHT22;10757;51.038;3.712;2022-12-01T17:14:11;6.60;99.90
21199;DHT22;10757;51.038;3.712;2022-12-01T17:16:36;6.60;99.90
21199;DHT22;10757;51.038;3.712;2022-12-01T17:19:03;6.50;99.90
21199;DHT22;10757;51.038;3.712;2022-12-01T17:21:29;6.50;99.90
21199;DHT22;10757;51.038;3.712;2022-12-01T17:23:55;6.40;99.90
21199;DHT22;10757;51.038;3.712;2022-12-01T17:26:21;6.50;99.90
21199;DHT22;10757;51.038;3.712;2022-12-01T17:28:47;6.40;99.90
21199;DHT22;10757;51.038;3.712;2022-12-01T17:31:13;6.50;99.90
21199;DHT22;10757;51.038;3.712;2022-12-01T17:33:40;6.40;99.90
21199;DHT22;10757;51.038;3.712;2022-12-01T17:36:09;6.60;99.90
21199;DHT22;10757;51.038;3.712;2022-12-01T17:38:36;6.50;99.90
21199;DHT22;10757;51.038;3.712;2022-12-01T17:41:08;6.50;99.90
21199;DHT22;10757;51.038;3.712;2022-12-01T17:43:35;6.50;99.90
21199;DHT22;10757;51.038;3.712;2022-12-01T17:46:03;6.50;99.90
21199;DHT22;10757;51.038;3.712;2022-12-01T17:48:37;6.50;99.90
21199;DHT22;10757;51.038;3.712;2022-12-01T17:51:04;6.60;99.90
21199;DHT22;10757;51.038;3.712;2022-12-01T17:53:31;6.50;99.90
21199;DHT22;10757;51.038;3.712;2022-12-01T17:55:56;6.40;99.90
21199;DHT22;10757;51.038;3.712;2022-12-01T17:58:22;6.20;99.90
21199;DHT22;10757;51.038;3.712;2022-12-01T18:00:49;6.10;99.90
21199;DHT22;10757;51.038;3.712;2022-12-01T18:03:15;6.00;99.90
21199;DHT22;10757;51.038;3.712;2022-12-01T18:05:41;6.00;99.90
21199;DHT22;10757;51.038;3.712;2022-12-01T18:08:07;6.00;99.90
21199;DHT22;10757;51.038;3.712;2022-12-01T18:10:33;6.00;99.90
21199;DHT22;10757;51.038;3.712;2022-12-01T18:12:59;6.00;99.90
21199;DHT22;10757;51.038;3.712;2022-12-01T18:15:24;5.90;99.90
21199;DHT22;10757;51.038;3.712;2022-12-01T18:17:53;5.90;99.90
21199;DHT22;10757;51.038;3.712;2022-12-01T18:20:19;6.10;99.90
21199;DHT22;10757;51.038;3.712;2022-12-01T18:22:45;6.50;99.90
21199;DHT22;10757;51.038;3.712;2022-12-01T18:25:11;6.60;99.90
21199;DHT22;10757;51.038;3.712;2022-12-01T18:27:37;6.60;99.90
21199;DHT22;10757;51.038;3.712;2022-12-01T18:30:03;6.70;99.90
21199;DHT22;10757;51.038;3.712;2022-12-01T18:32:29;6.80;99.90
21199;DHT22;10757;51.038;3.712;2022-12-01T18:34:55;6.60;99.90
21199;DHT22;10757;51.038;3.712;2022-12-01T18:37:21;6.30;99.90
21199;DHT22;10757;51.038;3.712;2022-12-01T18:39:47;6.40;99.90